sensor_id;sensor_type;location;lat;lon;timestamp;pressure;altitude;pressure_sealevel;temperature;humidity
4598;BME280;62772;48.646;8.906;2023-05-02T00:03:10;96371.72;;;7.02;100.00
4598;BME280;62772;48.646;8.906;2023-05-02T00:08:11;96373.00;;;7.23;100.00
4598;BME280;62772;48.646;8.906;2023-05-02T00:13:11;96370.59;;;7.27;100.00
4598;BME280;62772;48.646;8.906;2023-05-02T00:18:12;96369.47;;;7.66;100.00
4598;BME280;62772;48.646;8.906;2023-05-02T00:23:12;96378.66;;;7.93;100.00
4598;BME280;62772;48.646;8.906;2023-05-02T00:28:13;96365.47;;;7.31;100.00
4598;BME280;62772;48.646;8.906;2023-05-02T00:33:13;96374.41;;;6.24;100.00
4598;BME280;62772;48.646;8.906;2023-05-02T00:38:14;96376.50;;;6.27;100.00
4598;BME280;62772;48.646;8.906;2023-05-02T00:43:15;96377.25;;;5.64;100.00
4598;BME280;62772;48.646;8.906;2023-05-02T00:48:15;96383.66;;;5.58;100.00
4598;BME280;62772;48.646;8.906;2023-05-02T00:53:17;96384.56;;;5.43;100.00
4598;BME280;62772;48.646;8.906;2023-05-02T00:58:18;96387.75;;;5.40;100.00
4598;BME280;62772;48.646;8.906;2023-05-02T01:09:22;96388.34;;;5.71;100.00
4598;BME280;62772;48.646;8.906;2023-05-02T01:14:28;96390.03;;;5.91;100.00
4598;BME280;62772;48.646;8.906;2023-05-02T01:19:34;96391.72;;;6.16;100.00
4598;BME280;62772;48.646;8.906;2023-05-02T01:29:59;96388.38;;;6.59;100.00
4598;BME280;62772;48.646;8.906;2023-05-02T01:35:01;96384.41;;;6.81;100.00
4598;BME280;62772;48.646;8.906;2023-05-02T01:40:04;96379.13;;;7.24;100.00
4598;BME280;62772;48.646;8.906;2023-05-02T01:45:06;96382.53;;;7.05;100.00
4598;BME280;62772;48.646;8.906;2023-05-02T01:50:10;96392.34;;;6.86;100.00
4598;BME280;62772;48.646;8.906;2023-05-02T01:55:14;96381.16;;;6.65;100.00
4598;BME280;62772;48.646;8.906;2023-05-02T02:00:17;96386.00;;;6.82;100.00
4598;BME280;62772;48.646;8.906;2023-05-02T02:05:19;96385.72;;;6.59;100.00
4598;BME280;62772;48.646;8.906;2023-05-02T02:10:22;96382.63;;;7.00;100.00
4598;BME280;62772;48.646;8.906;2023-05-02T02:15:27;96398.78;;;7.23;100.00
4598;BME280;62772;48.646;8.906;2023-05-02T02:20:28;96398.97;;;7.07;100.00
4598;BME280;62772;48.646;8.906;2023-05-02T02:25:30;96405.66;;;6.57;100.00
4598;BME280;62772;48.646;8.906;2023-05-02T02:30:31;96412.63;;;5.84;100.00
4598;BME280;62772;48.646;8.906;2023-05-02T02:35:43;96411.94;;;6.66;100.00
4598;BME280;62772;48.646;8.906;2023-05-02T02:40:55;96422.00;;;6.10;100.00
4598;BME280;62772;48.646;8.906;2023-05-02T02:46:01;96421.41;;;6.48;100.00
4598;BME280;62772;48.646;8.906;2023-05-02T02:51:38;96423.78;;;6.49;100.00
4598;BME280;62772;48.646;8.906;2023-05-02T02:56:42;96428.69;;;5.58;100.00
4598;BME280;62772;48.646;8.906;2023-05-02T03:01:47;96436.13;;;6.35;100.00
4598;BME280;62772;48.646;8.906;2023-05-02T03:06:50;96446.09;;;5.69;100.00
4598;BME280;62772;48.646;8.906;2023-05-02T03:11:51;96456.34;;;6.26;100.00
4598;BME280;62772;48.646;8.906;2023-05-02T03:16:52;96458.44;;;6.29;100.00
4598;BME280;62772;48.646;8.906;2023-05-02T03:21:53;96467.06;;;6.45;100.00
4598;BME280;62772;48.646;8.906;2023-05-02T03:26:55;96472.94;;;6.42;100.00
4598;BME280;62772;48.646;8.906;2023-05-02T03:31:59;96469.41;;;6.17;100.00
4598;BME280;62772;48.646;8.906;2023-05-02T03:37:00;96477.34;;;6.22;100.00
4598;BME280;62772;48.646;8.906;2023-05-02T03:42:00;96488.34;;;6.40;100.00
4598;BME280;62772;48.646;8.906;2023-05-02T03:47:01;96491.81;;;6.35;100.00
4598;BME280;62772;48.646;8.906;2023-05-02T03:52:03;96497.47;;;6.58;100.00
4598;BME280;62772;48.646;8.906;2023-05-02T03:57:07;96500.41;;;6.56;100.00
4598;BME280;62772;48.646;8.906;2023-05-02T04:02:08;96512.16;;;6.74;100.00
4598;BME280;62772;48.646;8.906;2023-05-02T04:07:15;96516.88;;;6.53;100.00
4598;BME280;62772;48.646;8.906;2023-05-02T04:12:21;96519.03;;;6.46;100.00
4598;BME280;62772;48.646;8.906;2023-05-02T04:17:24;96522.28;;;6.43;100.00
4598;BME280;62772;48.646;8.906;2023-05-02T04:22:25;96529.47;;;6.66;100.00
4598;BME280;62772;48.646;8.906;2023-05-02T04:27:30;96533.28;;;6.60;100.00
4598;BME280;62772;48.646;8.906;2023-05-02T04:32:32;96532.63;;;6.74;100.00
4598;BME280;62772;48.646;8.906;2023-05-02T04:37:35;96529.94;;;7.03;100.00
4598;BME280;62772;48.646;8.906;2023-05-02T04:42:35;96544.66;;;6.90;100.00
4598;BME280;62772;48.646;8.906;2023-05-02T04:47:49;96540.75;;;7.12;100.00
4598;BME280;62772;48.646;8.906;2023-05-02T04:52:49;96543.00;;;6.99;100.00
4598;BME280;62772;48.646;8.906;2023-05-02T04:57:50;96549.75;;;6.86;100.00
4598;BME280;62772;48.646;8.906;2023-05-02T05:02:52;96550.88;;;6.51;100.00
4598;BME280;62772;48.646;8.906;2023-05-02T05:07:52;96556.41;;;6.54;100.00
4598;BME280;62772;48.646;8.906;2023-05-02T05:12:54;96563.50;;;6.94;100.00
4598;BME280;62772;48.646;8.906;2023-05-02T05:17:56;96566.84;;;7.04;100.00
4598;BME280;62772;48.646;8.906;2023-05-02T05:22:57;96572.50;;;7.22;100.00
4598;BME280;62772;48.646;8.906;2023-05-02T05:27:59;96587.78;;;7.11;100.00
4598;BME280;62772;48.646;8.906;2023-05-02T05:33:00;96599.53;;;7.00;100.00
4598;BME280;62772;48.646;8.906;2023-05-02T05:38:01;96603.25;;;7.04;100.00
4598;BME280;62772;48.646;8.906;2023-05-02T05:43:04;96622.50;;;7.44;100.00
4598;BME280;62772;48.646;8.906;2023-05-02T05:48:08;96624.31;;;7.49;100.00
4598;BME280;62772;48.646;8.906;2023-05-02T05:53:15;96627.44;;;7.56;100.00
4598;BME280;62772;48.646;8.906;2023-05-02T05:58:18;96626.53;;;7.66;100.00
4598;BME280;62772;48.646;8.906;2023-05-02T06:03:19;96629.63;;;7.73;100.00
4598;BME280;62772;48.646;8.906;2023-05-02T06:08:20;96641.47;;;7.61;100.00
4598;BME280;62772;48.646;8.906;2023-05-02T06:13:21;96639.63;;;7.62;100.00
4598;BME280;62772;48.646;8.906;2023-05-02T06:18:22;96658.72;;;7.64;100.00
4598;BME280;62772;48.646;8.906;2023-05-02T06:23:23;96655.78;;;7.66;100.00
4598;BME280;62772;48.646;8.906;2023-05-02T06:28:24;96667.56;;;7.84;100.00
4598;BME280;62772;48.646;8.906;2023-05-02T06:33:24;96677.63;;;7.87;100.00
4598;BME280;62772;48.646;8.906;2023-05-02T06:38:25;96676.59;;;7.82;100.00
4598;BME280;62772;48.646;8.906;2023-05-02T06:43:25;96663.97;;;7.93;100.00
4598;BME280;62772;48.646;8.906;2023-05-02T06:48:26;96676.16;;;7.99;100.00
4598;BME280;62772;48.646;8.906;2023-05-02T06:53:26;96684.31;;;8.08;100.00
4598;BME280;62772;48.646;8.906;2023-05-02T06:58:28;96690.06;;;8.15;100.00
4598;BME280;62772;48.646;8.906;2023-05-02T07:03:29;96691.31;;;8.23;100.00
4598;BME280;62772;48.646;8.906;2023-05-02T07:08:29;96697.41;;;8.48;100.00
4598;BME280;62772;48.646;8.906;2023-05-02T07:13:30;96703.84;;;8.42;100.00
4598;BME280;62772;48.646;8.906;2023-05-02T07:18:30;96713.25;;;8.58;100.00
4598;BME280;62772;48.646;8.906;2023-05-02T07:23:31;96718.00;;;8.61;100.00
4598;BME280;62772;48.646;8.906;2023-05-02T07:28:31;96723.25;;;8.66;100.00
4598;BME280;62772;48.646;8.906;2023-05-02T07:33:32;96717.13;;;8.66;100.00
4598;BME280;62772;48.646;8.906;2023-05-02T07:38:32;96722.19;;;8.67;100.00
4598;BME280;62772;48.646;8.906;2023-05-02T07:43:33;96719.59;;;8.81;100.00
4598;BME280;62772;48.646;8.906;2023-05-02T07:48:33;96730.59;;;8.94;100.00
4598;BME280;62772;48.646;8.906;2023-05-02T07:53:34;96730.28;;;9.14;100.00
4598;BME280;62772;48.646;8.906;2023-05-02T07:58:34;96736.63;;;9.18;100.00
4598;BME280;62772;48.646;8.906;2023-05-02T08:03:38;96736.81;;;9.41;100.00
4598;BME280;62772;48.646;8.906;2023-05-02T08:08:38;96743.22;;;9.40;100.00
4598;BME280;62772;48.646;8.906;2023-05-02T08:13:39;96751.09;;;9.31;100.00
4598;BME280;62772;48.646;8.906;2023-05-02T08:18:39;96760.31;;;9.39;100.00
4598;BME280;62772;48.646;8.906;2023-05-02T08:23:40;96767.94;;;9.46;100.00
4598;BME280;62772;48.646;8.906;2023-05-02T08:28:41;96769.19;;;9.67;100.00
4598;BME280;62772;48.646;8.906;2023-05-02T08:33:42;96759.41;;;9.62;100.00
4598;BME280;62772;48.646;8.906;2023-05-02T08:38:44;96758.88;;;9.60;100.00
4598;BME280;62772;48.646;8.906;2023-05-02T08:43:45;96756.97;;;9.94;100.00
4598;BME280;62772;48.646;8.906;2023-05-02T08:48:46;96759.28;;;10.14;100.00
4598;BME280;62772;48.646;8.906;2023-05-02T08:53:49;96761.47;;;10.40;100.00
4598;BME280;62772;48.646;8.906;2023-05-02T08:58:51;96772.47;;;10.52;100.00
4598;BME280;62772;48.646;8.906;2023-05-02T09:03:51;96773.66;;;10.60;100.00
4598;BME280;62772;48.646;8.906;2023-05-02T09:08:54;96787.22;;;10.50;100.00
4598;BME280;62772;48.646;8.906;2023-05-02T09:13:54;96784.38;;;10.27;100.00
4598;BME280;62772;48.646;8.906;2023-05-02T09:18:56;96796.38;;;10.30;100.00
4598;BME280;62772;48.646;8.906;2023-05-02T09:23:58;96802.28;;;10.13;100.00
4598;BME280;62772;48.646;8.906;2023-05-02T09:29:00;96798.47;;;10.61;100.00
4598;BME280;62772;48.646;8.906;2023-05-02T09:34:09;96802.00;;;10.98;100.00
4598;BME280;62772;48.646;8.906;2023-05-02T09:39:11;96800.00;;;10.89;100.00
4598;BME280;62772;48.646;8.906;2023-05-02T09:44:15;96795.25;;;11.00;100.00
4598;BME280;62772;48.646;8.906;2023-05-02T09:49:18;96803.81;;;11.25;100.00
4598;BME280;62772;48.646;8.906;2023-05-02T09:54:35;96800.34;;;11.24;100.00
4598;BME280;62772;48.646;8.906;2023-05-02T09:59:36;96798.78;;;11.46;100.00
4598;BME280;62772;48.646;8.906;2023-05-02T10:04:37;96804.25;;;11.64;100.00
4598;BME280;62772;48.646;8.906;2023-05-02T10:09:42;96804.44;;;11.67;100.00
4598;BME280;62772;48.646;8.906;2023-05-02T10:14:48;96804.53;;;11.53;100.00
4598;BME280;62772;48.646;8.906;2023-05-02T10:19:57;96804.66;;;11.93;100.00
4598;BME280;62772;48.646;8.906;2023-05-02T10:24:59;96817.91;;;12.30;100.00
4598;BME280;62772;48.646;8.906;2023-05-02T10:30:02;96804.75;;;12.11;100.00
4598;BME280;62772;48.646;8.906;2023-05-02T10:35:06;96809.28;;;12.42;100.00
4598;BME280;62772;48.646;8.906;2023-05-02T10:40:09;96806.59;;;12.42;100.00
4598;BME280;62772;48.646;8.906;2023-05-02T10:45:33;96801.75;;;12.12;100.00
4598;BME280;62772;48.646;8.906;2023-05-02T10:50:48;96788.09;;;12.23;100.00
4598;BME280;62772;48.646;8.906;2023-05-02T10:56:16;96788.38;;;12.12;100.00
4598;BME280;62772;48.646;8.906;2023-05-02T11:01:37;96791.25;;;12.25;100.00
4598;BME280;62772;48.646;8.906;2023-05-02T11:12:01;96792.53;;;12.76;100.00
4598;BME280;62772;48.646;8.906;2023-05-02T11:17:05;96791.88;;;12.62;100.00
4598;BME280;62772;48.646;8.906;2023-05-02T11:37:52;96788.56;;;12.65;100.00
4598;BME280;62772;48.646;8.906;2023-05-02T11:42:53;96790.38;;;12.38;100.00
4598;BME280;62772;48.646;8.906;2023-05-02T11:47:56;96779.63;;;12.96;100.00
4598;BME280;62772;48.646;8.906;2023-05-02T11:52:57;96773.97;;;13.32;100.00
4598;BME280;62772;48.646;8.906;2023-05-02T11:57:57;96776.81;;;13.53;100.00
4598;BME280;62772;48.646;8.906;2023-05-02T12:02:58;96785.84;;;13.40;97.43
4598;BME280;62772;48.646;8.906;2023-05-02T12:07:58;96778.72;;;13.44;99.81
4598;BME280;62772;48.646;8.906;2023-05-02T12:13:04;96773.22;;;13.40;94.59
4598;BME280;62772;48.646;8.906;2023-05-02T12:18:05;96772.03;;;13.85;95.52
4598;BME280;62772;48.646;8.906;2023-05-02T12:23:06;96777.72;;;13.84;100.00
4598;BME280;62772;48.646;8.906;2023-05-02T12:28:08;96790.50;;;13.87;100.00
4598;BME280;62772;48.646;8.906;2023-05-02T12:33:09;96800.59;;;13.02;100.00
4598;BME280;62772;48.646;8.906;2023-05-02T12:38:12;96791.66;;;13.16;100.00
4598;BME280;62772;48.646;8.906;2023-05-02T12:43:13;96790.41;;;13.57;100.00
4598;BME280;62772;48.646;8.906;2023-05-02T12:48:22;96789.78;;;13.51;100.00
4598;BME280;62772;48.646;8.906;2023-05-02T12:53:42;96787.88;;;13.60;100.00
4598;BME280;62772;48.646;8.906;2023-05-02T12:58:45;96799.09;;;13.71;97.37
4598;BME280;62772;48.646;8.906;2023-05-02T13:03:49;96790.41;;;13.66;100.00
4598;BME280;62772;48.646;8.906;2023-05-02T13:08:50;96792.09;;;13.79;100.00
4598;BME280;62772;48.646;8.906;2023-05-02T13:13:50;96791.97;;;13.84;100.00
4598;BME280;62772;48.646;8.906;2023-05-02T13:18:51;96792.44;;;13.69;100.00
4598;BME280;62772;48.646;8.906;2023-05-02T13:23:51;96781.50;;;13.91;96.08
4598;BME280;62772;48.646;8.906;2023-05-02T13:28:52;96800.66;;;13.72;93.29
4598;BME280;62772;48.646;8.906;2023-05-02T13:33:53;96794.00;;;13.87;100.00
4598;BME280;62772;48.646;8.906;2023-05-02T13:38:53;96789.22;;;14.02;95.05
4598;BME280;62772;48.646;8.906;2023-05-02T13:43:53;96787.63;;;14.09;93.64
4598;BME280;62772;48.646;8.906;2023-05-02T13:48:54;96775.47;;;14.03;89.54
4598;BME280;62772;48.646;8.906;2023-05-02T13:53:54;96786.38;;;14.07;93.26
4598;BME280;62772;48.646;8.906;2023-05-02T13:58:55;96773.59;;;13.95;98.45
4598;BME280;62772;48.646;8.906;2023-05-02T14:03:56;96785.72;;;14.10;98.83
4598;BME280;62772;48.646;8.906;2023-05-02T14:08:56;96783.03;;;14.10;100.00
4598;BME280;62772;48.646;8.906;2023-05-02T14:13:57;96778.94;;;14.04;100.00
4598;BME280;62772;48.646;8.906;2023-05-02T14:18:58;96798.91;;;13.76;100.00
4598;BME280;62772;48.646;8.906;2023-05-02T14:23:59;96794.47;;;13.81;100.00
4598;BME280;62772;48.646;8.906;2023-05-02T14:28:59;96790.19;;;13.88;96.13
4598;BME280;62772;48.646;8.906;2023-05-02T14:34:01;96788.34;;;14.27;89.76
4598;BME280;62772;48.646;8.906;2023-05-02T14:39:01;96790.41;;;14.30;86.93
4598;BME280;62772;48.646;8.906;2023-05-02T14:44:02;96785.53;;;14.24;87.62
4598;BME280;62772;48.646;8.906;2023-05-02T14:49:03;96805.78;;;14.12;90.98
4598;BME280;62772;48.646;8.906;2023-05-02T14:54:04;96800.25;;;14.18;92.61
4598;BME280;62772;48.646;8.906;2023-05-02T14:59:04;96808.06;;;13.84;95.65
4598;BME280;62772;48.646;8.906;2023-05-02T15:04:05;96804.59;;;13.75;98.23
4598;BME280;62772;48.646;8.906;2023-05-02T15:09:05;96805.56;;;13.70;95.32
4598;BME280;62772;48.646;8.906;2023-05-02T15:14:06;96799.34;;;14.05;92.21
4598;BME280;62772;48.646;8.906;2023-05-02T15:19:06;96797.56;;;14.18;91.61
4598;BME280;62772;48.646;8.906;2023-05-02T15:24:07;96812.25;;;14.11;91.29
4598;BME280;62772;48.646;8.906;2023-05-02T15:29:07;96821.41;;;14.10;86.92
4598;BME280;62772;48.646;8.906;2023-05-02T15:34:08;96815.34;;;13.57;90.48
4598;BME280;62772;48.646;8.906;2023-05-02T15:39:08;96810.44;;;13.59;86.43
4598;BME280;62772;48.646;8.906;2023-05-02T15:44:09;96821.19;;;13.51;88.45
4598;BME280;62772;48.646;8.906;2023-05-02T15:49:09;96817.72;;;13.59;90.34
4598;BME280;62772;48.646;8.906;2023-05-02T15:54:10;96816.91;;;13.85;86.59
4598;BME280;62772;48.646;8.906;2023-05-02T15:59:11;96817.50;;;13.99;83.81
4598;BME280;62772;48.646;8.906;2023-05-02T16:04:11;96820.66;;;14.10;83.51
4598;BME280;62772;48.646;8.906;2023-05-02T16:09:12;96826.03;;;14.01;83.98
4598;BME280;62772;48.646;8.906;2023-05-02T16:14:12;96830.19;;;13.81;77.74
4598;BME280;62772;48.646;8.906;2023-05-02T16:19:12;96825.72;;;13.94;76.03
4598;BME280;62772;48.646;8.906;2023-05-02T16:24:13;96829.63;;;14.14;74.50
4598;BME280;62772;48.646;8.906;2023-05-02T16:29:13;96835.66;;;13.93;77.26
4598;BME280;62772;48.646;8.906;2023-05-02T16:34:14;96835.66;;;14.02;78.03
4598;BME280;62772;48.646;8.906;2023-05-02T16:39:14;96829.78;;;14.18;76.98
4598;BME280;62772;48.646;8.906;2023-05-02T16:44:15;96821.72;;;14.18;74.65
4598;BME280;62772;48.646;8.906;2023-05-02T16:49:15;96833.34;;;14.39;70.86
4598;BME280;62772;48.646;8.906;2023-05-02T16:54:16;96830.44;;;14.53;72.08
4598;BME280;62772;48.646;8.906;2023-05-02T16:59:17;96836.97;;;14.43;72.36
4598;BME280;62772;48.646;8.906;2023-05-02T17:04:17;96841.47;;;14.22;72.96
4598;BME280;62772;48.646;8.906;2023-05-02T17:09:21;96838.19;;;14.55;71.84
4598;BME280;62772;48.646;8.906;2023-05-02T17:14:21;96845.31;;;14.50;68.97
4598;BME280;62772;48.646;8.906;2023-05-02T17:19:23;96842.50;;;15.15;68.14
4598;BME280;62772;48.646;8.906;2023-05-02T17:24:24;96844.41;;;15.57;65.57
4598;BME280;62772;48.646;8.906;2023-05-02T17:29:24;96842.97;;;15.81;63.94
4598;BME280;62772;48.646;8.906;2023-05-02T17:34:25;96849.63;;;15.83;61.83
4598;BME280;62772;48.646;8.906;2023-05-02T17:39:27;96854.06;;;15.58;63.23
4598;BME280;62772;48.646;8.906;2023-05-02T17:44:28;96861.72;;;14.10;69.25
4598;BME280;62772;48.646;8.906;2023-05-02T17:49:34;96860.75;;;14.15;71.93
4598;BME280;62772;48.646;8.906;2023-05-02T17:54:34;96871.69;;;13.92;71.05
4598;BME280;62772;48.646;8.906;2023-05-02T17:59:39;96874.34;;;14.01;72.43
4598;BME280;62772;48.646;8.906;2023-05-02T18:04:40;96874.88;;;13.86;72.03
4598;BME280;62772;48.646;8.906;2023-05-02T18:09:40;96896.16;;;13.56;74.13
4598;BME280;62772;48.646;8.906;2023-05-02T18:14:41;96898.47;;;13.31;77.29
4598;BME280;62772;48.646;8.906;2023-05-02T18:19:41;96897.78;;;13.08;77.51
4598;BME280;62772;48.646;8.906;2023-05-02T18:24:42;96906.16;;;13.06;78.04
4598;BME280;62772;48.646;8.906;2023-05-02T18:29:42;96909.03;;;12.79;81.31
4598;BME280;62772;48.646;8.906;2023-05-02T18:34:43;96913.75;;;12.42;84.75
4598;BME280;62772;48.646;8.906;2023-05-02T18:39:43;96915.03;;;12.44;88.32
4598;BME280;62772;48.646;8.906;2023-05-02T18:44:43;96916.00;;;12.26;90.34
4598;BME280;62772;48.646;8.906;2023-05-02T18:49:44;96924.91;;;12.12;93.50
4598;BME280;62772;48.646;8.906;2023-05-02T18:54:45;96928.84;;;11.92;96.76
4598;BME280;62772;48.646;8.906;2023-05-02T18:59:46;96936.53;;;12.30;94.21
4598;BME280;62772;48.646;8.906;2023-05-02T19:04:46;96936.66;;;12.25;94.80
4598;BME280;62772;48.646;8.906;2023-05-02T19:09:47;96942.38;;;11.59;99.93
4598;BME280;62772;48.646;8.906;2023-05-02T19:14:47;96946.13;;;11.72;98.01
4598;BME280;62772;48.646;8.906;2023-05-02T19:19:49;96941.13;;;11.43;100.00
4598;BME280;62772;48.646;8.906;2023-05-02T19:24:50;96947.78;;;11.18;100.00
4598;BME280;62772;48.646;8.906;2023-05-02T19:29:53;96958.28;;;10.86;100.00
4598;BME280;62772;48.646;8.906;2023-05-02T19:34:54;96962.22;;;10.89;100.00
4598;BME280;62772;48.646;8.906;2023-05-02T19:39:56;96968.75;;;10.69;100.00
4598;BME280;62772;48.646;8.906;2023-05-02T19:44:57;96983.34;;;10.58;100.00
4598;BME280;62772;48.646;8.906;2023-05-02T19:49:57;96985.31;;;11.13;100.00
4598;BME280;62772;48.646;8.906;2023-05-02T19:54:58;96991.59;;;10.75;100.00
4598;BME280;62772;48.646;8.906;2023-05-02T20:00:00;96996.88;;;10.80;100.00
4598;BME280;62772;48.646;8.906;2023-05-02T20:05:01;96998.91;;;10.37;100.00
4598;BME280;62772;48.646;8.906;2023-05-02T20:10:02;97010.16;;;10.14;100.00
4598;BME280;62772;48.646;8.906;2023-05-02T20:15:03;97007.78;;;10.13;100.00
4598;BME280;62772;48.646;8.906;2023-05-02T20:20:05;97022.72;;;9.95;100.00
4598;BME280;62772;48.646;8.906;2023-05-02T20:25:08;97029.19;;;9.89;100.00
4598;BME280;62772;48.646;8.906;2023-05-02T20:30:10;97032.31;;;9.77;100.00
4598;BME280;62772;48.646;8.906;2023-05-02T20:35:11;97029.56;;;9.82;100.00
4598;BME280;62772;48.646;8.906;2023-05-02T20:40:12;97031.50;;;10.14;100.00
4598;BME280;62772;48.646;8.906;2023-05-02T20:45:12;97035.13;;;10.05;100.00
4598;BME280;62772;48.646;8.906;2023-05-02T20:50:13;97028.63;;;10.30;100.00
4598;BME280;62772;48.646;8.906;2023-05-02T20:55:16;97026.53;;;10.27;100.00
4598;BME280;62772;48.646;8.906;2023-05-02T21:00:18;97023.47;;;9.76;100.00
4598;BME280;62772;48.646;8.906;2023-05-02T21:05:21;97028.06;;;10.14;100.00
4598;BME280;62772;48.646;8.906;2023-05-02T21:10:21;97021.84;;;10.19;100.00
4598;BME280;62772;48.646;8.906;2023-05-02T21:15:22;97025.47;;;10.09;100.00
4598;BME280;62772;48.646;8.906;2023-05-02T21:20:22;97031.66;;;10.04;100.00
4598;BME280;62772;48.646;8.906;2023-05-02T21:25:23;97033.88;;;9.97;100.00
4598;BME280;62772;48.646;8.906;2023-05-02T21:30:23;97036.06;;;9.95;100.00
4598;BME280;62772;48.646;8.906;2023-05-02T21:35:24;97035.22;;;9.56;100.00
4598;BME280;62772;48.646;8.906;2023-05-02T21:40:24;97034.53;;;9.46;100.00
4598;BME280;62772;48.646;8.906;2023-05-02T21:45:25;97033.28;;;9.38;100.00
4598;BME280;62772;48.646;8.906;2023-05-02T21:50:26;97035.38;;;9.65;100.00
4598;BME280;62772;48.646;8.906;2023-05-02T21:55:26;97042.41;;;9.56;100.00
4598;BME280;62772;48.646;8.906;2023-05-02T22:00:26;97030.75;;;9.52;100.00
4598;BME280;62772;48.646;8.906;2023-05-02T22:05:27;97036.22;;;9.60;100.00
4598;BME280;62772;48.646;8.906;2023-05-02T22:10:28;97035.72;;;9.58;100.00
4598;BME280;62772;48.646;8.906;2023-05-02T22:15:29;97030.47;;;9.53;100.00
4598;BME280;62772;48.646;8.906;2023-05-02T22:20:29;97031.38;;;9.43;100.00
4598;BME280;62772;48.646;8.906;2023-05-02T22:25:30;97030.16;;;9.06;100.00
4598;BME280;62772;48.646;8.906;2023-05-02T22:30:34;97038.78;;;8.69;100.00
4598;BME280;62772;48.646;8.906;2023-05-02T22:35:36;97030.28;;;8.62;100.00
4598;BME280;62772;48.646;8.906;2023-05-02T22:40:37;97030.41;;;8.81;100.00
4598;BME280;62772;48.646;8.906;2023-05-02T22:45:37;97022.31;;;8.91;100.00
4598;BME280;62772;48.646;8.906;2023-05-02T22:50:38;97033.91;;;9.05;100.00
4598;BME280;62772;48.646;8.906;2023-05-02T22:55:39;97036.63;;;8.71;100.00
4598;BME280;62772;48.646;8.906;2023-05-02T23:00:39;97028.91;;;8.69;100.00
4598;BME280;62772;48.646;8.906;2023-05-02T23:05:40;97046.97;;;8.43;100.00
4598;BME280;62772;48.646;8.906;2023-05-02T23:10:41;97043.34;;;8.18;100.00
4598;BME280;62772;48.646;8.906;2023-05-02T23:15:41;97046.97;;;8.73;100.00
4598;BME280;62772;48.646;8.906;2023-05-02T23:20:42;97038.94;;;8.48;100.00
4598;BME280;62772;48.646;8.906;2023-05-02T23:25:43;97041.22;;;8.21;100.00
4598;BME280;62772;48.646;8.906;2023-05-02T23:30:43;97037.16;;;8.28;100.00
4598;BME280;62772;48.646;8.906;2023-05-02T23:35:44;97040.59;;;8.34;100.00
4598;BME280;62772;48.646;8.906;2023-05-02T23:40:45;97042.03;;;8.16;100.00
4598;BME280;62772;48.646;8.906;2023-05-02T23:45:45;97043.59;;;8.27;100.00
4598;BME280;62772;48.646;8.906;2023-05-02T23:50:46;97036.44;;;8.23;100.00
4598;BME280;62772;48.646;8.906;2023-05-02T23:55:46;97033.38;;;7.95;100.00
